Time;durP1;ratioP1;P1;durP2;ratioP2;P2;SDS_P1;SDS_P2;PMS_P1;PMS_P2;Temp;Humidity;BMP_temperature;BMP_pressure;BME280_temperature;BME280_humidity;BME280_pressure;Samples;Min_cycle;Max_cycle;Signal;HPM_P1;HPM_P2
2022/03/08 00:00:26;;;;;;;8.20;5.20;;;;;;;;;;5064185;28;20068;-91
2022/03/08 00:02:52;;;;;;;8.98;5.47;;;;;;;;;;5047993;28;20036;-91
2022/03/08 00:05:18;;;;;;;8.75;5.35;;;;;;;;;;5049442;28;20061;-92
2022/03/08 00:07:47;;;;;;;9.18;5.28;;;;;;;;;;5045086;28;20146;-94
2022/03/08 00:10:12;;;;;;;10.00;5.43;;;;;;;;;;5061781;28;20489;-93
2022/03/08 00:12:38;;;;;;;8.50;5.00;;;;;;;;;;5048900;28;20028;-92
2022/03/08 00:15:11;;;;;;;7.97;5.00;;;;;;;;;;5038896;28;20044;-86
2022/03/08 00:17:38;;;;;;;8.98;5.20;;;;;;;;;;5043304;28;20017;-93
2022/03/08 00:20:06;;;;;;;9.73;5.72;;;;;;;;;;5048730;28;20032;-90
2022/03/08 00:22:33;;;;;;;8.30;5.00;;;;;;;;;;5045751;28;20056;-91
2022/03/08 00:25:01;;;;;;;8.07;5.18;;;;;;;;;;5043852;28;20029;-86
2022/03/08 00:27:27;;;;;;;8.32;4.80;;;;;;;;;;5062500;28;20025;-90
2022/03/08 00:29:52;;;;;;;9.63;5.35;;;;;;;;;;5046118;28;20032;-85
2022/03/08 00:32:17;;;;;;;8.80;4.88;;;;;;;;;;5061918;28;20035;-92
2022/03/08 00:34:43;;;;;;;9.18;5.10;;;;;;;;;;5049070;28;20178;-90
2022/03/08 00:37:08;;;;;;;8.07;4.78;;;;;;;;;;5046632;28;20031;-89
2022/03/08 00:39:33;;;;;;;8.02;4.72;;;;;;;;;;5046452;28;20210;-89
2022/03/08 00:41:59;;;;;;;5.80;4.03;;;;;;;;;;5049559;28;20040;-91
2022/03/08 00:44:24;;;;;;;8.45;4.85;;;;;;;;;;5049338;28;20632;-93
2022/03/08 00:46:49;;;;;;;8.40;5.07;;;;;;;;;;5050000;28;20032;-91
2022/03/08 00:49:15;;;;;;;10.35;4.80;;;;;;;;;;5051835;28;20120;-88
2022/03/08 00:51:40;;;;;;;7.55;4.60;;;;;;;;;;5054028;28;20028;-87
2022/03/08 00:54:06;;;;;;;6.63;4.40;;;;;;;;;;5049480;28;20016;-87
2022/03/08 00:56:31;;;;;;;8.55;4.75;;;;;;;;;;5048769;28;20078;-86
2022/03/08 00:58:56;;;;;;;8.77;5.30;;;;;;;;;;5053462;28;20040;-86
2022/03/08 01:01:22;;;;;;;8.75;4.80;;;;;;;;;;5048158;28;20024;-90
2022/03/08 01:03:47;;;;;;;7.45;4.40;;;;;;;;;;5052686;28;20036;-91
2022/03/08 01:06:13;;;;;;;6.88;4.57;;;;;;;;;;5046061;28;20393;-90
2022/03/08 01:08:38;;;;;;;7.03;4.10;;;;;;;;;;5051560;28;20035;-87
2022/03/08 01:11:04;;;;;;;9.20;4.55;;;;;;;;;;5048527;28;20028;-90
2022/03/08 01:13:29;;;;;;;9.60;4.82;;;;;;;;;;5046461;28;20090;-90
2022/03/08 01:15:54;;;;;;;7.43;4.30;;;;;;;;;;5054067;28;20028;-90
2022/03/08 01:18:20;;;;;;;8.00;4.63;;;;;;;;;;5052320;28;20085;-89
2022/03/08 01:20:45;;;;;;;9.07;4.55;;;;;;;;;;5064285;28;20032;-86
2022/03/08 01:23:10;;;;;;;7.82;4.50;;;;;;;;;;5049865;28;20131;-91
2022/03/08 01:25:39;;;;;;;7.97;4.72;;;;;;;;;;5045634;28;20032;-90
2022/03/08 01:28:06;;;;;;;8.20;4.68;;;;;;;;;;5047282;28;20087;-90
2022/03/08 01:30:32;;;;;;;8.02;4.70;;;;;;;;;;5050585;28;20477;-86
2022/03/08 01:32:58;;;;;;;9.68;5.20;;;;;;;;;;5054268;28;20028;-90
2022/03/08 01:35:24;;;;;;;8.43;4.68;;;;;;;;;;5053031;28;20039;-87
2022/03/08 01:37:50;;;;;;;8.23;5.07;;;;;;;;;;5046697;28;20362;-86
2022/03/08 01:40:15;;;;;;;8.65;4.95;;;;;;;;;;5066940;28;20036;-89
2022/03/08 01:42:46;;;;;;;8.52;4.70;;;;;;;;;;5051603;28;20024;-91
2022/03/08 01:45:13;;;;;;;8.82;4.60;;;;;;;;;;5047481;28;20370;-89
2022/03/08 01:47:38;;;;;;;10.65;4.72;;;;;;;;;;5044517;28;20496;-84
2022/03/08 01:50:06;;;;;;;9.05;4.85;;;;;;;;;;5048142;28;20059;-85
2022/03/08 01:52:32;;;;;;;8.35;4.70;;;;;;;;;;5051969;28;20728;-88
2022/03/08 01:54:58;;;;;;;7.45;4.55;;;;;;;;;;5050086;28;20024;-88
2022/03/08 01:57:25;;;;;;;7.72;4.53;;;;;;;;;;5049093;28;20034;-88
2022/03/08 01:59:52;;;;;;;9.88;4.53;;;;;;;;;;5049039;28;20036;-88
2022/03/08 02:02:17;;;;;;;7.22;4.40;;;;;;;;;;5052644;28;20422;-88
2022/03/08 02:04:43;;;;;;;7.80;4.72;;;;;;;;;;5048624;28;20063;-91
2022/03/08 02:07:10;;;;;;;9.75;4.95;;;;;;;;;;5048476;28;20039;-89
2022/03/08 02:09:35;;;;;;;10.25;5.13;;;;;;;;;;5049531;28;20090;-85
2022/03/08 02:12:00;;;;;;;8.82;5.45;;;;;;;;;;5047798;28;20028;-88
2022/03/08 02:14:26;;;;;;;9.88;5.22;;;;;;;;;;5049033;28;20404;-92
2022/03/08 02:16:52;;;;;;;9.38;4.63;;;;;;;;;;5044802;28;20032;-87
2022/03/08 02:19:17;;;;;;;10.65;5.38;;;;;;;;;;5050552;28;20519;-88
2022/03/08 02:21:43;;;;;;;8.20;4.80;;;;;;;;;;5050489;28;20070;-89
2022/03/08 02:24:08;;;;;;;9.38;4.80;;;;;;;;;;5048938;28;20029;-86
2022/03/08 02:26:34;;;;;;;10.70;4.78;;;;;;;;;;5046984;28;20036;-91
2022/03/08 02:29:01;;;;;;;9.57;5.03;;;;;;;;;;5060808;28;20465;-86
2022/03/08 02:31:27;;;;;;;7.85;4.93;;;;;;;;;;5053946;28;20032;-92
2022/03/08 02:33:52;;;;;;;9.13;5.07;;;;;;;;;;5046174;28;20041;-90
2022/03/08 02:36:18;;;;;;;8.25;4.97;;;;;;;;;;5042389;28;20041;-85
2022/03/08 02:38:44;;;;;;;9.38;4.85;;;;;;;;;;5048052;28;20075;-89
2022/03/08 02:41:09;;;;;;;7.95;4.95;;;;;;;;;;5045141;28;20094;-93
2022/03/08 02:43:34;;;;;;;7.95;4.47;;;;;;;;;;5044073;28;20033;-86
2022/03/08 02:46:00;;;;;;;8.10;4.95;;;;;;;;;;5042621;28;20090;-86
2022/03/08 02:48:27;;;;;;;8.35;4.35;;;;;;;;;;5044017;28;20040;-89
2022/03/08 02:50:52;;;;;;;7.20;4.55;;;;;;;;;;5048520;28;20167;-84
2022/03/08 02:53:18;;;;;;;10.60;4.72;;;;;;;;;;5048380;28;20116;-89
2022/03/08 02:55:43;;;;;;;9.73;4.80;;;;;;;;;;5044001;28;20041;-86
2022/03/08 02:58:08;;;;;;;7.70;4.88;;;;;;;;;;5036466;28;20040;-89
2022/03/08 03:00:35;;;;;;;9.43;4.90;;;;;;;;;;5037835;28;20025;-89
2022/03/08 03:03:01;;;;;;;8.32;4.70;;;;;;;;;;5036426;28;20863;-86
2022/03/08 03:05:27;;;;;;;8.55;4.40;;;;;;;;;;5036797;28;20028;-91
2022/03/08 03:07:52;;;;;;;8.02;4.78;;;;;;;;;;5041135;28;20028;-92
2022/03/08 03:10:19;;;;;;;13.05;4.57;;;;;;;;;;5045670;28;20489;-90
2022/03/08 03:12:45;;;;;;;6.93;4.68;;;;;;;;;;5038165;28;20264;-88
2022/03/08 03:15:12;;;;;;;7.70;4.78;;;;;;;;;;5043822;28;20111;-85
2022/03/08 03:17:38;;;;;;;9.13;4.70;;;;;;;;;;5043129;28;20496;-91
2022/03/08 03:20:05;;;;;;;8.88;4.70;;;;;;;;;;5042902;28;20025;-85
2022/03/08 03:22:30;;;;;;;12.27;5.40;;;;;;;;;;5035289;28;20028;-86
2022/03/08 03:24:56;;;;;;;9.18;5.20;;;;;;;;;;5041775;28;20051;-86
2022/03/08 03:27:21;;;;;;;8.00;5.10;;;;;;;;;;5045883;28;20029;-91
2022/03/08 03:29:47;;;;;;;8.35;5.13;;;;;;;;;;5041338;28;20392;-84
2022/03/08 03:32:13;;;;;;;10.05;5.57;;;;;;;;;;5038832;28;20039;-86
2022/03/08 03:34:38;;;;;;;7.45;4.88;;;;;;;;;;5057050;28;20181;-92
2022/03/08 03:37:04;;;;;;;12.02;5.05;;;;;;;;;;5043934;28;20036;-87
2022/03/08 03:39:29;;;;;;;8.60;4.97;;;;;;;;;;5045340;28;20033;-87
2022/03/08 03:41:54;;;;;;;8.63;5.10;;;;;;;;;;5049112;28;20033;-85
2022/03/08 03:44:20;;;;;;;8.27;4.68;;;;;;;;;;5049953;28;20032;-87
2022/03/08 03:46:45;;;;;;;8.43;4.65;;;;;;;;;;5043849;28;20032;-85
2022/03/08 03:49:10;;;;;;;8.90;4.88;;;;;;;;;;5042682;28;20032;-85
2022/03/08 03:51:36;;;;;;;7.97;4.97;;;;;;;;;;5045721;28;20034;-86
2022/03/08 03:54:01;;;;;;;7.70;4.45;;;;;;;;;;5040980;28;20060;-89
2022/03/08 03:56:27;;;;;;;7.78;4.65;;;;;;;;;;5048303;28;20033;-91
2022/03/08 03:58:52;;;;;;;7.78;4.72;;;;;;;;;;5040161;28;20060;-84
2022/03/08 04:01:18;;;;;;;8.77;4.72;;;;;;;;;;5044352;28;20500;-90
2022/03/08 04:03:43;;;;;;;10.45;5.32;;;;;;;;;;5044069;28;20029;-93
2022/03/08 04:06:08;;;;;;;10.27;5.50;;;;;;;;;;5043200;28;20037;-90
2022/03/08 04:08:34;;;;;;;9.15;5.60;;;;;;;;;;5049062;28;20597;-87
2022/03/08 04:11:00;;;;;;;8.80;5.32;;;;;;;;;;5063750;28;20024;-86
2022/03/08 04:13:25;;;;;;;9.93;5.10;;;;;;;;;;5045485;28;20031;-86
2022/03/08 04:15:52;;;;;;;9.73;5.30;;;;;;;;;;5064176;28;20075;-86
2022/03/08 04:18:18;;;;;;;10.30;5.45;;;;;;;;;;5061033;28;20036;-92
2022/03/08 04:20:44;;;;;;;9.73;5.38;;;;;;;;;;5051294;28;20497;-92
2022/03/08 04:23:09;;;;;;;7.55;4.95;;;;;;;;;;5053898;28;20028;-86
2022/03/08 04:25:34;;;;;;;8.55;5.05;;;;;;;;;;5050364;28;20032;-91
2022/03/08 04:28:02;;;;;;;10.10;5.40;;;;;;;;;;5048951;28;20063;-86
2022/03/08 04:30:27;;;;;;;10.63;5.03;;;;;;;;;;5052787;28;20119;-85
2022/03/08 04:32:53;;;;;;;9.02;5.13;;;;;;;;;;5072563;28;20099;-86
2022/03/08 04:35:19;;;;;;;7.80;4.97;;;;;;;;;;5051991;28;20033;-92
2022/03/08 04:37:44;;;;;;;9.32;5.07;;;;;;;;;;5050658;28;20477;-86
2022/03/08 04:40:11;;;;;;;8.02;4.90;;;;;;;;;;5051335;28;20032;-90
2022/03/08 04:42:38;;;;;;;10.75;5.38;;;;;;;;;;5051206;28;20361;-83
2022/03/08 04:45:04;;;;;;;9.88;5.35;;;;;;;;;;5051208;28;20489;-87
2022/03/08 04:47:29;;;;;;;7.88;4.68;;;;;;;;;;5045370;28;20028;-86
2022/03/08 04:49:54;;;;;;;8.90;5.05;;;;;;;;;;5040535;28;20127;-90
2022/03/08 04:52:20;;;;;;;9.68;5.35;;;;;;;;;;5048160;28;20106;-83
2022/03/08 04:54:45;;;;;;;10.02;4.60;;;;;;;;;;5066003;28;20147;-85
2022/03/08 04:57:10;;;;;;;10.90;4.90;;;;;;;;;;5050142;28;20516;-89
2022/03/08 04:59:36;;;;;;;8.75;5.30;;;;;;;;;;5047116;28;20032;-87
2022/03/08 05:02:01;;;;;;;11.70;4.93;;;;;;;;;;5066859;28;20164;-83
2022/03/08 05:04:27;;;;;;;9.88;5.63;;;;;;;;;;5044964;28;20029;-85
2022/03/08 05:06:52;;;;;;;10.32;5.78;;;;;;;;;;5042651;28;20131;-88
2022/03/08 05:09:18;;;;;;;10.25;5.50;;;;;;;;;;5052971;28;20048;-88
2022/03/08 05:11:44;;;;;;;11.15;5.38;;;;;;;;;;5048683;28;20098;-86
2022/03/08 05:14:09;;;;;;;8.98;4.93;;;;;;;;;;5051192;28;20036;-85
2022/03/08 05:16:34;;;;;;;9.77;6.38;;;;;;;;;;5050267;28;20028;-84
2022/03/08 05:19:00;;;;;;;10.13;5.55;;;;;;;;;;5055465;28;20480;-88
2022/03/08 05:21:25;;;;;;;9.95;5.85;;;;;;;;;;5049068;28;20070;-89
2022/03/08 05:23:51;;;;;;;10.00;5.20;;;;;;;;;;5044355;28;20029;-89
2022/03/08 05:26:16;;;;;;;9.15;4.70;;;;;;;;;;5047444;28;20032;-91
2022/03/08 05:28:42;;;;;;;7.53;5.07;;;;;;;;;;5045017;28;20056;-84
2022/03/08 05:31:09;;;;;;;8.98;5.50;;;;;;;;;;5049093;28;20039;-89
2022/03/08 05:33:34;;;;;;;8.80;5.25;;;;;;;;;;5049567;28;20106;-86
2022/03/08 05:36:00;;;;;;;8.48;5.10;;;;;;;;;;5048458;28;20032;-87
2022/03/08 05:38:25;;;;;;;16.58;5.68;;;;;;;;;;5045504;28;20451;-86
2022/03/08 05:40:50;;;;;;;9.52;5.70;;;;;;;;;;5052127;28;20025;-85
2022/03/08 05:43:16;;;;;;;8.50;5.25;;;;;;;;;;5051275;28;20032;-90
2022/03/08 05:45:41;;;;;;;8.38;5.10;;;;;;;;;;5042032;28;20390;-90
2022/03/08 05:48:06;;;;;;;10.27;5.78;;;;;;;;;;5047390;28;20055;-85
2022/03/08 05:50:32;;;;;;;10.18;5.47;;;;;;;;;;5048202;28;20021;-87
2022/03/08 05:52:57;;;;;;;9.00;5.00;;;;;;;;;;5050546;28;20033;-87
2022/03/08 05:55:23;;;;;;;9.52;5.75;;;;;;;;;;5051115;28;20085;-91
2022/03/08 05:57:48;;;;;;;8.82;5.10;;;;;;;;;;5049610;28;20523;-90
2022/03/08 06:00:14;;;;;;;9.52;5.03;;;;;;;;;;5057382;28;20029;-86
2022/03/08 06:02:40;;;;;;;10.43;5.60;;;;;;;;;;5064639;28;20377;-90
2022/03/08 06:05:06;;;;;;;10.80;5.53;;;;;;;;;;5050351;28;20127;-87
2022/03/08 06:07:31;;;;;;;8.98;5.00;;;;;;;;;;5048403;28;20111;-89
2022/03/08 06:09:56;;;;;;;10.13;6.13;;;;;;;;;;5051649;28;20021;-89
2022/03/08 06:12:22;;;;;;;10.82;5.90;;;;;;;;;;5047717;28;20032;-91
2022/03/08 06:14:47;;;;;;;10.00;5.90;;;;;;;;;;5049583;28;20032;-89
2022/03/08 06:17:13;;;;;;;11.23;5.70;;;;;;;;;;5047596;28;20043;-86
2022/03/08 06:19:38;;;;;;;8.45;5.47;;;;;;;;;;5048895;28;20063;-83
2022/03/08 06:22:05;;;;;;;9.23;5.40;;;;;;;;;;5047566;28;20021;-90
2022/03/08 06:24:30;;;;;;;9.73;5.70;;;;;;;;;;5051950;28;20036;-91
2022/03/08 06:26:55;;;;;;;8.18;5.45;;;;;;;;;;5046566;28;20104;-89
2022/03/08 06:29:21;;;;;;;10.13;6.00;;;;;;;;;;5047770;28;20756;-91
2022/03/08 06:31:46;;;;;;;9.73;5.70;;;;;;;;;;5045870;28;20443;-86
2022/03/08 06:34:11;;;;;;;9.35;5.10;;;;;;;;;;5044056;28;20493;-89
2022/03/08 06:36:39;;;;;;;11.30;5.15;;;;;;;;;;5033790;28;20484;-91
2022/03/08 06:39:04;;;;;;;9.20;5.32;;;;;;;;;;5033015;28;20056;-87
2022/03/08 06:41:31;;;;;;;8.60;5.80;;;;;;;;;;5034372;28;20064;-93
2022/03/08 06:43:56;;;;;;;11.30;6.50;;;;;;;;;;5037955;28;20078;-90
2022/03/08 06:46:22;;;;;;;10.23;6.30;;;;;;;;;;5035228;28;20032;-86
2022/03/08 06:48:47;;;;;;;10.32;5.85;;;;;;;;;;5028473;28;20086;-91
2022/03/08 06:51:14;;;;;;;12.77;6.40;;;;;;;;;;5033727;28;20032;-85
2022/03/08 06:53:42;;;;;;;11.25;6.57;;;;;;;;;;5027136;28;20033;-91
2022/03/08 06:56:07;;;;;;;10.93;6.78;;;;;;;;;;5037253;28;20025;-84
2022/03/08 06:58:33;;;;;;;11.48;7.13;;;;;;;;;;5034896;28;20059;-92
2022/03/08 07:01:02;;;;;;;12.00;7.25;;;;;;;;;;5033124;28;20700;-85
2022/03/08 07:03:28;;;;;;;12.45;7.43;;;;;;;;;;5029866;28;20029;-90
2022/03/08 07:05:53;;;;;;;13.52;7.90;;;;;;;;;;5035089;28;20029;-90
2022/03/08 07:08:19;;;;;;;11.75;7.00;;;;;;;;;;5035045;28;20035;-90
2022/03/08 07:10:44;;;;;;;11.13;7.30;;;;;;;;;;5032309;28;20060;-83
2022/03/08 07:13:09;;;;;;;10.57;6.65;;;;;;;;;;5030145;28;20484;-89
2022/03/08 07:15:35;;;;;;;10.50;6.85;;;;;;;;;;5029780;28;20082;-85
2022/03/08 07:18:16;;;;;;;16.00;7.10;;;;;;;;;;5051054;28;20083;-88
2022/03/08 07:20:43;;;;;;;10.07;6.43;;;;;;;;;;5032546;28;20500;-88
2022/03/08 07:23:14;;;;;;;12.00;6.28;;;;;;;;;;5034564;28;20041;-89
2022/03/08 07:25:40;;;;;;;11.40;6.63;;;;;;;;;;5033905;28;20040;-86
2022/03/08 07:28:05;;;;;;;11.02;7.00;;;;;;;;;;5028940;28;20037;-86
2022/03/08 07:30:31;;;;;;;12.07;6.57;;;;;;;;;;5030655;28;20033;-85
2022/03/08 07:32:56;;;;;;;14.23;6.82;;;;;;;;;;5030340;28;20029;-87
2022/03/08 07:48:15;;;;;;;12.45;6.72;;;;;;;;;;5060749;28;20162;-85
2022/03/08 07:50:41;;;;;;;12.52;6.70;;;;;;;;;;5039932;28;20024;-88
2022/03/08 07:53:07;;;;;;;12.70;6.90;;;;;;;;;;5040011;28;20071;-87
2022/03/08 07:55:34;;;;;;;12.38;6.72;;;;;;;;;;5043194;28;20652;-86
2022/03/08 07:58:01;;;;;;;12.40;6.93;;;;;;;;;;5048189;28;20024;-88
2022/03/08 08:00:27;;;;;;;11.60;6.70;;;;;;;;;;5046957;28;20033;-85
2022/03/08 08:02:52;;;;;;;11.70;6.57;;;;;;;;;;5046382;28;20032;-86
2022/03/08 08:05:18;;;;;;;11.75;7.20;;;;;;;;;;5049790;28;20665;-88
2022/03/08 08:07:44;;;;;;;11.18;6.88;;;;;;;;;;5059575;28;20420;-87
2022/03/08 08:10:10;;;;;;;10.30;6.68;;;;;;;;;;5042518;28;20035;-86
2022/03/08 08:12:37;;;;;;;10.82;6.40;;;;;;;;;;5050471;28;20028;-86
2022/03/08 08:15:03;;;;;;;10.90;6.70;;;;;;;;;;5040089;28;20032;-87
2022/03/08 08:17:29;;;;;;;13.40;7.13;;;;;;;;;;5048147;28;20093;-86
2022/03/08 08:19:54;;;;;;;10.40;6.72;;;;;;;;;;5043863;28;20036;-85
2022/03/08 08:22:19;;;;;;;10.98;6.95;;;;;;;;;;5044720;28;20047;-89
2022/03/08 08:24:45;;;;;;;11.27;6.72;;;;;;;;;;5048193;28;20031;-88
2022/03/08 08:27:10;;;;;;;13.02;7.20;;;;;;;;;;5043733;28;20498;-88
2022/03/08 08:29:36;;;;;;;10.57;6.68;;;;;;;;;;5049254;28;20024;-91
2022/03/08 08:32:01;;;;;;;10.88;6.38;;;;;;;;;;5048852;28;20045;-91
2022/03/08 08:34:27;;;;;;;10.25;6.60;;;;;;;;;;5053600;28;20794;-87
2022/03/08 08:36:54;;;;;;;10.85;6.43;;;;;;;;;;5053712;28;20021;-87
2022/03/08 08:39:19;;;;;;;8.98;6.28;;;;;;;;;;5035532;28;20036;-90
2022/03/08 08:41:45;;;;;;;13.50;6.60;;;;;;;;;;5027776;28;20029;-92
2022/03/08 08:44:11;;;;;;;9.00;6.20;;;;;;;;;;5044919;28;20026;-87
2022/03/08 08:46:37;;;;;;;9.48;6.10;;;;;;;;;;5029674;28;20497;-85
2022/03/08 08:49:03;;;;;;;14.52;7.10;;;;;;;;;;5030609;28;20028;-89
2022/03/08 08:51:29;;;;;;;9.32;6.60;;;;;;;;;;5031641;28;20349;-86
2022/03/08 08:53:54;;;;;;;10.52;6.43;;;;;;;;;;5028012;28;20087;-85
2022/03/08 08:56:19;;;;;;;12.40;6.65;;;;;;;;;;5046130;28;20118;-87
2022/03/08 08:58:45;;;;;;;10.63;6.53;;;;;;;;;;5031252;28;20031;-88
2022/03/08 09:01:10;;;;;;;10.05;6.50;;;;;;;;;;5047040;28;20032;-90
2022/03/08 09:03:36;;;;;;;10.75;6.40;;;;;;;;;;5046642;28;20017;-85
2022/03/08 09:06:01;;;;;;;10.52;5.75;;;;;;;;;;5041559;28;20020;-87
2022/03/08 09:08:26;;;;;;;10.45;6.05;;;;;;;;;;5031353;28;20024;-85
2022/03/08 09:10:53;;;;;;;8.43;5.85;;;;;;;;;;5050601;28;20027;-90
2022/03/08 09:13:19;;;;;;;10.85;6.13;;;;;;;;;;5048157;28;20111;-88
2022/03/08 09:15:44;;;;;;;11.50;5.78;;;;;;;;;;5029333;28;20558;-85
2022/03/08 09:18:10;;;;;;;9.02;5.90;;;;;;;;;;5046885;28;20056;-85
2022/03/08 09:20:35;;;;;;;9.70;5.93;;;;;;;;;;5033296;28;20366;-88
2022/03/08 09:23:01;;;;;;;11.13;6.85;;;;;;;;;;5044279;28;20535;-84
2022/03/08 09:25:27;;;;;;;9.23;5.80;;;;;;;;;;5042866;28;20029;-83
2022/03/08 09:27:53;;;;;;;8.57;6.07;;;;;;;;;;5026515;28;20099;-83
2022/03/08 09:30:19;;;;;;;10.85;6.55;;;;;;;;;;5030657;28;20026;-85
2022/03/08 09:32:44;;;;;;;9.65;6.05;;;;;;;;;;5036443;28;20108;-87
2022/03/08 09:35:10;;;;;;;9.50;6.40;;;;;;;;;;5031168;28;20136;-88
2022/03/08 09:37:35;;;;;;;9.85;5.53;;;;;;;;;;5043465;28;20028;-87
2022/03/08 09:40:02;;;;;;;11.50;5.63;;;;;;;;;;5043615;28;20033;-90
2022/03/08 09:42:30;;;;;;;8.13;5.68;;;;;;;;;;5044394;28;20783;-87
2022/03/08 09:44:55;;;;;;;9.38;5.78;;;;;;;;;;5026891;28;20464;-91
2022/03/08 09:47:22;;;;;;;8.90;5.72;;;;;;;;;;5036617;28;20057;-88
2022/03/08 09:49:49;;;;;;;8.25;4.97;;;;;;;;;;5008279;28;20041;-89
2022/03/08 09:52:19;;;;;;;8.15;5.63;;;;;;;;;;5026987;28;20034;-87
2022/03/08 09:54:50;;;;;;;8.38;5.15;;;;;;;;;;5028132;28;20045;-85
2022/03/08 09:57:22;;;;;;;7.95;5.38;;;;;;;;;;5028317;28;20484;-88
2022/03/08 09:59:49;;;;;;;7.20;4.90;;;;;;;;;;5010151;28;20216;-86
2022/03/08 10:02:23;;;;;;;7.65;4.97;;;;;;;;;;5014804;28;20044;-90
2022/03/08 10:05:03;;;;;;;7.07;4.93;;;;;;;;;;5015037;28;20548;-92
2022/03/08 10:08:00;;;;;;;10.40;5.07;;;;;;;;;;5027284;28;20026;-86
2022/03/08 10:10:26;;;;;;;8.07;5.07;;;;;;;;;;5000874;28;20140;-87
2022/03/08 10:12:56;;;;;;;13.02;5.38;;;;;;;;;;5008491;28;20104;-87
2022/03/08 10:15:22;;;;;;;9.02;5.05;;;;;;;;;;5029188;28;20116;-85
2022/03/08 10:17:47;;;;;;;7.53;5.20;;;;;;;;;;5024662;28;20120;-88
2022/03/08 10:20:26;;;;;;;8.32;5.07;;;;;;;;;;5013364;28;20025;-84
2022/03/08 10:22:51;;;;;;;8.98;4.85;;;;;;;;;;5010717;28;20109;-85
2022/03/08 10:25:25;;;;;;;9.80;5.10;;;;;;;;;;5009396;28;20048;-88
2022/03/08 10:27:56;;;;;;;8.90;5.28;;;;;;;;;;5025980;28;20497;-86
2022/03/08 10:30:29;;;;;;;10.70;5.15;;;;;;;;;;5027377;28;20397;-86
2022/03/08 10:32:56;;;;;;;7.22;4.68;;;;;;;;;;5028004;28;20053;-85
2022/03/08 10:35:23;;;;;;;8.23;5.20;;;;;;;;;;5027931;28;20044;-88
2022/03/08 10:37:54;;;;;;;8.48;5.30;;;;;;;;;;5009901;28;20025;-91
2022/03/08 10:40:30;;;;;;;9.32;5.97;;;;;;;;;;5012581;28;20026;-86
2022/03/08 10:43:04;;;;;;;7.97;5.25;;;;;;;;;;5028854;28;20036;-89
2022/03/08 10:45:31;;;;;;;7.60;5.03;;;;;;;;;;5025835;28;20456;-87
2022/03/08 10:48:06;;;;;;;9.55;4.97;;;;;;;;;;5045183;28;20052;-84
2022/03/08 10:50:34;;;;;;;8.27;5.25;;;;;;;;;;5035205;28;20032;-87
2022/03/08 10:53:06;;;;;;;9.77;5.03;;;;;;;;;;5028027;28;20032;-84
2022/03/08 10:55:34;;;;;;;9.30;5.10;;;;;;;;;;5027324;28;20450;-87
2022/03/08 10:58:05;;;;;;;10.30;5.47;;;;;;;;;;5030154;28;20483;-82
2022/03/08 11:00:33;;;;;;;14.65;5.28;;;;;;;;;;5045100;28;20163;-84
2022/03/08 11:03:05;;;;;;;7.85;4.80;;;;;;;;;;5026805;28;20027;-84
2022/03/08 11:05:33;;;;;;;9.82;5.00;;;;;;;;;;5039409;28;20028;-84
2022/03/08 11:07:58;;;;;;;6.95;4.53;;;;;;;;;;5027830;28;20119;-85
2022/03/08 11:10:26;;;;;;;7.88;4.95;;;;;;;;;;5040295;28;20457;-88
2022/03/08 11:12:55;;;;;;;7.70;5.00;;;;;;;;;;5040449;28;20728;-83
2022/03/08 11:15:22;;;;;;;10.18;5.30;;;;;;;;;;5029913;28;20495;-85
2022/03/08 11:17:50;;;;;;;8.88;4.75;;;;;;;;;;5049807;28;20487;-89
2022/03/08 11:20:17;;;;;;;9.52;5.20;;;;;;;;;;5045995;28;20033;-88
2022/03/08 11:22:44;;;;;;;8.65;5.20;;;;;;;;;;5046867;28;20055;-83
2022/03/08 11:25:12;;;;;;;7.97;5.15;;;;;;;;;;5023478;28;20048;-84
2022/03/08 11:27:40;;;;;;;7.60;4.95;;;;;;;;;;5026706;28;20021;-83
2022/03/08 11:30:09;;;;;;;6.78;4.72;;;;;;;;;;5026614;28;20024;-85
2022/03/08 11:33:06;;;;;;;7.97;4.50;;;;;;;;;;5028590;28;20490;-87
2022/03/08 11:35:39;;;;;;;8.88;4.82;;;;;;;;;;5018787;28;20044;-87
2022/03/08 11:38:05;;;;;;;8.73;5.38;;;;;;;;;;5027741;28;20025;-83
2022/03/08 11:40:33;;;;;;;7.30;4.32;;;;;;;;;;5047165;28;20115;-83
2022/03/08 11:43:07;;;;;;;7.82;4.82;;;;;;;;;;5032668;28;20029;-83
2022/03/08 11:45:34;;;;;;;10.00;4.57;;;;;;;;;;5023091;28;20912;-86
2022/03/08 11:48:05;;;;;;;12.57;5.45;;;;;;;;;;5029537;28;20099;-84
2022/03/08 11:50:36;;;;;;;8.15;4.78;;;;;;;;;;5023490;28;20029;-88
2022/03/08 11:53:12;;;;;;;9.98;5.20;;;;;;;;;;5038253;28;20116;-83
2022/03/08 11:55:39;;;;;;;7.43;5.03;;;;;;;;;;5027147;28;20480;-88
2022/03/08 11:58:20;;;;;;;7.32;4.85;;;;;;;;;;5031303;28;20028;-84
2022/03/08 12:00:57;;;;;;;7.90;5.40;;;;;;;;;;5049236;28;20107;-84
2022/03/08 12:03:22;;;;;;;14.20;5.00;;;;;;;;;;5047222;28;20376;-82
2022/03/08 12:05:58;;;;;;;8.88;5.20;;;;;;;;;;5026703;28;20032;-85
2022/03/08 12:08:44;;;;;;;10.70;5.10;;;;;;;;;;5041361;28;20029;-85
2022/03/08 12:11:33;;;;;;;7.53;5.00;;;;;;;;;;5042656;28;20026;-84
2022/03/08 12:14:08;;;;;;;13.23;5.22;;;;;;;;;;5048754;28;20051;-87
2022/03/08 12:16:34;;;;;;;8.57;4.95;;;;;;;;;;5044309;28;20484;-89
2022/03/08 12:19:03;;;;;;;10.30;5.60;;;;;;;;;;5031955;28;20444;-88
2022/03/08 12:21:37;;;;;;;9.98;5.13;;;;;;;;;;5023857;28;20025;-87
2022/03/08 12:24:07;;;;;;;9.75;5.35;;;;;;;;;;5042966;28;20068;-84
2022/03/08 12:26:39;;;;;;;8.45;5.05;;;;;;;;;;5042945;28;20427;-85
2022/03/08 12:29:10;;;;;;;7.88;4.90;;;;;;;;;;5028704;28;20029;-88
2022/03/08 12:31:57;;;;;;;14.35;5.18;;;;;;;;;;5044379;28;20060;-85
2022/03/08 12:34:39;;;;;;;9.82;5.00;;;;;;;;;;5027418;28;20523;-89
2022/03/08 12:37:16;;;;;;;10.50;4.90;;;;;;;;;;5030026;28;20021;-86
2022/03/08 12:39:48;;;;;;;12.00;5.75;;;;;;;;;;5036666;28;20481;-86
2022/03/08 12:42:17;;;;;;;10.75;4.75;;;;;;;;;;5031340;28;20492;-83
2022/03/08 12:45:06;;;;;;;7.90;4.88;;;;;;;;;;5027331;28;20029;-88
2022/03/08 12:47:46;;;;;;;10.13;4.75;;;;;;;;;;5038837;28;20095;-88
2022/03/08 12:50:27;;;;;;;13.82;4.85;;;;;;;;;;5030232;28;20029;-84
2022/03/08 12:52:56;;;;;;;13.07;4.32;;;;;;;;;;5027100;28;20496;-84
2022/03/08 12:55:29;;;;;;;8.32;4.65;;;;;;;;;;5027005;28;20164;-86
2022/03/08 12:58:07;;;;;;;9.07;4.95;;;;;;;;;;5033528;28;20029;-84
2022/03/08 13:00:34;;;;;;;13.27;4.95;;;;;;;;;;5029391;28;20029;-89
2022/03/08 13:03:01;;;;;;;8.38;4.60;;;;;;;;;;5048272;28;20035;-88
2022/03/08 13:05:36;;;;;;;8.18;4.80;;;;;;;;;;5046165;28;20017;-85
2022/03/08 13:08:02;;;;;;;9.68;4.72;;;;;;;;;;5029895;28;20021;-89
2022/03/08 13:10:28;;;;;;;9.25;4.78;;;;;;;;;;5029576;28;20020;-88
2022/03/08 13:13:02;;;;;;;8.57;4.68;;;;;;;;;;5045932;28;20029;-89
2022/03/08 13:15:28;;;;;;;7.80;4.57;;;;;;;;;;5042764;28;20035;-84
2022/03/08 13:17:56;;;;;;;8.10;4.65;;;;;;;;;;5032301;28;20485;-84
2022/03/08 13:20:30;;;;;;;9.68;5.18;;;;;;;;;;5028504;28;20485;-84
2022/03/08 13:22:58;;;;;;;10.07;5.18;;;;;;;;;;5036165;28;20471;-88
2022/03/08 13:25:23;;;;;;;8.23;4.82;;;;;;;;;;5025368;28;20476;-83
2022/03/08 13:27:48;;;;;;;10.60;5.45;;;;;;;;;;5041847;28;20028;-90
2022/03/08 13:30:17;;;;;;;9.65;5.50;;;;;;;;;;5033775;28;20040;-83
2022/03/08 13:32:42;;;;;;;10.27;5.13;;;;;;;;;;5030217;28;20067;-90
2022/03/08 13:35:07;;;;;;;13.00;5.28;;;;;;;;;;5034903;28;20478;-84
2022/03/08 13:37:49;;;;;;;8.18;5.22;;;;;;;;;;5032751;28;20044;-88
2022/03/08 13:40:29;;;;;;;8.48;5.20;;;;;;;;;;5043432;28;20025;-83
2022/03/08 13:42:58;;;;;;;8.05;5.32;;;;;;;;;;5044937;28;20491;-82
2022/03/08 13:45:27;;;;;;;11.98;5.57;;;;;;;;;;5028148;28;20039;-81
2022/03/08 13:47:56;;;;;;;15.20;5.20;;;;;;;;;;5045355;28;20055;-81
2022/03/08 13:50:24;;;;;;;6.93;5.03;;;;;;;;;;5037930;28;20108;-81
2022/03/08 13:52:57;;;;;;;8.32;5.00;;;;;;;;;;5026295;28;20115;-86
2022/03/08 13:55:29;;;;;;;11.32;5.63;;;;;;;;;;5050989;28;20028;-88
2022/03/08 13:58:04;;;;;;;10.02;5.60;;;;;;;;;;5047216;28;20025;-87
2022/03/08 14:00:35;;;;;;;7.93;4.95;;;;;;;;;;5033770;28;20028;-88
2022/03/08 14:03:02;;;;;;;9.82;5.65;;;;;;;;;;5031740;28;20524;-85
2022/03/08 14:05:27;;;;;;;11.68;5.60;;;;;;;;;;5023482;28;20110;-83
2022/03/08 14:08:01;;;;;;;7.90;4.88;;;;;;;;;;5048336;28;20061;-89
2022/03/08 14:10:28;;;;;;;9.20;5.28;;;;;;;;;;5051356;28;20034;-87
2022/03/08 14:12:54;;;;;;;8.32;5.20;;;;;;;;;;5030126;28;20017;-88
2022/03/08 14:15:21;;;;;;;11.57;5.32;;;;;;;;;;5029341;28;20512;-88
2022/03/08 14:17:49;;;;;;;13.10;5.90;;;;;;;;;;5031693;28;20053;-87
2022/03/08 14:20:22;;;;;;;11.07;6.13;;;;;;;;;;5025412;28;20030;-83
2022/03/08 14:23:03;;;;;;;14.70;5.70;;;;;;;;;;5041398;28;20388;-87
2022/03/08 14:25:28;;;;;;;9.77;5.47;;;;;;;;;;5046276;28;20073;-88
2022/03/08 14:27:54;;;;;;;7.80;5.10;;;;;;;;;;5046563;28;20186;-84
2022/03/08 14:30:24;;;;;;;9.23;5.20;;;;;;;;;;5050359;28;20027;-83
2022/03/08 14:32:51;;;;;;;13.73;5.15;;;;;;;;;;5044608;28;20090;-87
2022/03/08 14:35:19;;;;;;;10.73;5.57;;;;;;;;;;5024166;28;20115;-83
2022/03/08 14:37:45;;;;;;;9.95;5.35;;;;;;;;;;5030520;28;20040;-83
2022/03/08 14:40:12;;;;;;;7.30;5.18;;;;;;;;;;5049456;28;20037;-85
2022/03/08 14:42:40;;;;;;;11.77;5.78;;;;;;;;;;5046118;28;20029;-83
2022/03/08 14:45:13;;;;;;;8.48;5.60;;;;;;;;;;5030679;28;20190;-88
2022/03/08 14:47:39;;;;;;;;;;;;;;;;;;5031967;28;20059;-83
2022/03/08 14:50:06;;;;;;;12.15;5.78;;;;;;;;;;5048331;28;19920;-88
2022/03/08 14:52:34;;;;;;;7.43;5.47;;;;;;;;;;5031341;28;20735;-83